Time;durP1;ratioP1;P1;durP2;ratioP2;P2;SDS_P1;SDS_P2;PMS_P1;PMS_P2;Temp;Humidity;BMP_temperature;BMP_pressure;BME280_temperature;BME280_humidity;BME280_pressure;Samples;Min_cycle;Max_cycle;Signal;HPM_P1;HPM_P2
2023/01/08 00:02:26;;;;;;;4.80;1.65;;;11.20;84.50;;;;;;9180291;19;20005;-69
2023/01/08 00:05:28;;;;;;;2.42;1.70;;;11.20;84.60;;;;;;9181001;19;20503;-69
2023/01/08 00:08:30;;;;;;;4.32;1.63;;;11.20;84.50;;;;;;9175355;19;20039;-69
2023/01/08 00:11:32;;;;;;;2.88;1.77;;;11.20;84.50;;;;;;9175754;19;20376;-69
2023/01/08 00:14:33;;;;;;;2.28;1.60;;;11.20;84.60;;;;;;9180245;19;20027;-69
2023/01/08 00:17:34;;;;;;;3.45;1.80;;;11.20;84.60;;;;;;9180276;19;20970;-69
2023/01/08 00:20:40;;;;;;;4.90;1.65;;;11.20;84.60;;;;;;9178655;19;20014;-69
2023/01/08 00:23:42;;;;;;;2.70;1.73;;;11.20;84.60;;;;;;9179233;19;20019;-69
2023/01/08 00:26:43;;;;;;;2.05;1.60;;;11.20;84.60;;;;;;9177959;19;20584;-69
2023/01/08 00:29:44;;;;;;;5.80;1.83;;;11.20;84.60;;;;;;9177852;19;20014;-69
2023/01/08 00:32:46;;;;;;;3.20;2.22;;;11.20;84.60;;;;;;9179740;19;20042;-69
2023/01/08 00:35:47;;;;;;;3.85;1.70;;;11.20;84.60;;;;;;9179708;19;20027;-69
2023/01/08 00:38:48;;;;;;;5.32;1.90;;;11.20;84.60;;;;;;9175980;19;20018;-68
2023/01/08 00:41:50;;;;;;;3.35;1.85;;;11.20;84.60;;;;;;9177895;19;20456;-69
2023/01/08 00:44:51;;;;;;;3.28;1.80;;;11.20;84.60;;;;;;9177652;19;20007;-69
2023/01/08 00:47:53;;;;;;;3.00;1.63;;;11.20;84.60;;;;;;9177599;19;20014;-69
2023/01/08 00:50:54;;;;;;;2.72;1.92;;;11.20;84.60;;;;;;9174692;19;20011;-69
2023/01/08 00:53:55;;;;;;;2.88;1.80;;;11.20;84.60;;;;;;9178054;19;20014;-69
2023/01/08 00:56:57;;;;;;;2.78;1.60;;;11.20;84.60;;;;;;9178883;19;20018;-68
2023/01/08 00:59:58;;;;;;;2.55;1.83;;;11.20;84.60;;;;;;9178745;19;20048;-68
2023/01/08 01:03:00;;;;;;;3.38;1.95;;;11.20;84.70;;;;;;9178941;19;20018;-69
2023/01/08 01:06:03;;;;;;;2.15;1.63;;;11.20;84.70;;;;;;9177040;19;20022;-69
2023/01/08 01:09:04;;;;;;;4.97;1.80;;;11.20;84.70;;;;;;9170746;19;20022;-69
2023/01/08 01:12:06;;;;;;;7.32;1.75;;;11.20;84.70;;;;;;9177871;19;20034;-69
2023/01/08 01:15:11;;;;;;;3.30;1.90;;;11.20;84.70;;;;;;9178812;19;20322;-69
2023/01/08 01:18:12;;;;;;;3.67;1.95;;;11.20;84.70;;;;;;9176131;19;20037;-69
2023/01/08 01:21:26;;;;;;;11.77;2.05;;;11.20;84.70;;;;;;9178206;19;20543;-69
2023/01/08 01:24:27;;;;;;;2.70;1.63;;;11.20;84.70;;;;;;9178705;19;20011;-69
2023/01/08 01:27:28;;;;;;;4.82;1.95;;;11.20;84.70;;;;;;9178113;19;20018;-69
2023/01/08 01:30:30;;;;;;;3.83;1.98;;;11.20;84.70;;;;;;9173256;19;20026;-69
2023/01/08 01:33:31;;;;;;;3.95;1.90;;;11.20;84.80;;;;;;9175239;19;20022;-69
2023/01/08 01:36:33;;;;;;;2.47;1.88;;;11.20;84.80;;;;;;9176384;19;20038;-69
2023/01/08 01:39:34;;;;;;;4.13;1.98;;;11.20;84.80;;;;;;9177600;19;20010;-69
2023/01/08 01:42:38;;;;;;;2.63;1.80;;;11.20;84.90;;;;;;9177073;19;20017;-69
2023/01/08 01:45:41;;;;;;;4.30;1.77;;;11.20;84.80;;;;;;9174083;19;20011;-69
2023/01/08 01:48:42;;;;;;;2.58;1.70;;;11.20;84.90;;;;;;9176509;19;20054;-69
2023/01/08 01:51:48;;;;;;;2.83;2.00;;;11.20;84.90;;;;;;9175295;19;20014;-69
2023/01/08 01:54:51;;;;;;;3.65;1.80;;;11.10;84.80;;;;;;9175831;19;20040;-69
2023/01/08 01:58:17;;;;;;;5.50;2.10;;;11.20;84.90;;;;;;9175086;19;20022;-69
2023/01/08 02:01:19;;;;;;;4.07;2.20;;;11.10;84.80;;;;;;9175343;19;20015;-69
2023/01/08 02:04:21;;;;;;;3.17;1.92;;;11.10;84.80;;;;;;9176624;19;20018;-69
2023/01/08 02:07:47;;;;;;;3.28;1.90;;;11.10;84.80;;;;;;9173214;19;20110;-69
2023/01/08 02:11:03;;;;;;;7.72;1.98;;;11.10;85.50;;;;;;9181596;19;20102;-69
2023/01/08 02:14:20;;;;;;;3.35;2.20;;;11.10;84.90;;;;;;9181967;19;20014;-69
2023/01/08 02:17:37;;;;;;;4.40;1.90;;;11.10;84.90;;;;;;9181623;19;20026;-69
2023/01/08 02:20:47;;;;;;;2.60;1.63;;;11.00;84.90;;;;;;9184553;19;20025;-69
2023/01/08 02:24:25;;;;;;;2.85;1.83;;;11.10;85.10;;;;;;9183676;19;20038;-69
2023/01/08 02:27:29;;;;;;;3.22;2.10;;;11.10;85.00;;;;;;9184327;19;20022;-69
2023/01/08 02:30:31;;;;;;;4.15;1.90;;;11.00;85.00;;;;;;9181262;19;20022;-69
2023/01/08 02:33:33;;;;;;;5.93;1.90;;;11.10;85.10;;;;;;9183718;19;20007;-68
2023/01/08 02:36:42;;;;;;;3.42;1.77;;;11.00;85.00;;;;;;9183150;19;20015;-69
2023/01/08 02:40:04;;;;;;;5.97;2.13;;;11.10;85.10;;;;;;9183700;19;20015;-69
2023/01/08 02:43:20;;;;;;;4.72;2.03;;;11.00;85.00;;;;;;9183220;19;20040;-69
2023/01/08 02:46:26;;;;;;;4.13;2.13;;;11.10;85.10;;;;;;9182669;19;20582;-69
2023/01/08 02:49:34;;;;;;;3.08;2.03;;;11.10;85.10;;;;;;9178729;19;20026;-70
2023/01/08 02:52:46;;;;;;;7.38;2.38;;;11.10;85.10;;;;;;9180353;19;20011;-69
2023/01/08 02:55:54;;;;;;;3.25;2.03;;;11.10;85.10;;;;;;9182290;19;20018;-68
2023/01/08 02:58:58;;;;;;;9.95;2.13;;;11.10;85.00;;;;;;9183583;19;20075;-68
2023/01/08 03:02:01;;;;;;;7.82;2.53;;;11.00;84.90;;;;;;9182123;19;20018;-69
2023/01/08 03:05:13;;;;;;;5.43;2.30;;;11.00;84.90;;;;;;9180764;19;20018;-69
2023/01/08 03:08:17;;;;;;;5.35;2.75;;;11.10;85.00;;;;;;9178483;19;20013;-67
2023/01/08 03:11:21;;;;;;;5.72;2.05;;;11.10;85.00;;;;;;9180284;19;20602;-69
2023/01/08 03:14:28;;;;;;;;;;;11.00;84.90;;;;;;9183326;19;20879;-68
2023/01/08 03:17:34;;;;;;;4.03;1.98;;;11.00;84.90;;;;;;9182139;19;19956;-69
2023/01/08 03:20:37;;;;;;;4.03;2.08;;;11.10;85.10;;;;;;9181725;19;20016;-69
2023/01/08 03:23:40;;;;;;;4.38;1.90;;;11.00;84.90;;;;;;9182013;19;20014;-68
2023/01/08 03:26:45;;;;;;;4.28;2.10;;;11.00;85.00;;;;;;9179769;19;20022;-70
2023/01/08 03:29:50;;;;;;;8.07;2.20;;;11.10;85.20;;;;;;9179381;19;20508;-69
2023/01/08 03:32:54;;;;;;;6.65;2.30;;;11.00;85.10;;;;;;9180838;19;20495;-69
2023/01/08 03:35:57;;;;;;;3.97;2.10;;;11.00;85.10;;;;;;9181349;19;20007;-69
2023/01/08 03:39:09;;;;;;;7.40;2.17;;;11.00;85.20;;;;;;9181902;19;20040;-69
2023/01/08 03:42:13;;;;;;;6.03;2.42;;;11.00;85.10;;;;;;9181137;19;20018;-69
2023/01/08 03:45:15;;;;;;;4.40;2.15;;;11.10;85.20;;;;;;9181513;19;20030;-69
2023/01/08 03:48:20;;;;;;;4.03;1.90;;;11.00;85.00;;;;;;9180559;19;20018;-69
2023/01/08 03:51:21;;;;;;;5.18;2.17;;;11.00;84.90;;;;;;9181664;19;20379;-69
2023/01/08 03:54:28;;;;;;;4.30;1.60;;;11.00;85.00;;;;;;9180825;19;20014;-69
2023/01/08 03:57:30;;;;;;;5.45;2.40;;;11.00;85.00;;;;;;9178927;19;20049;-69
2023/01/08 04:00:31;;;;;;;5.93;2.25;;;11.00;84.90;;;;;;9179296;19;20018;-69
2023/01/08 04:03:33;;;;;;;6.68;2.28;;;11.00;84.90;;;;;;9177781;19;20022;-69
2023/01/08 04:06:34;;;;;;;4.15;2.30;;;11.00;85.00;;;;;;9173406;19;20023;-69
2023/01/08 04:09:35;;;;;;;5.55;2.28;;;11.00;85.00;;;;;;9177152;19;20030;-69
2023/01/08 04:12:37;;;;;;;4.97;2.60;;;11.00;85.50;;;;;;9180671;19;20014;-69
2023/01/08 04:15:38;;;;;;;4.05;1.73;;;11.00;85.10;;;;;;9178931;19;20046;-69
2023/01/08 04:18:40;;;;;;;4.95;1.75;;;11.00;85.10;;;;;;9179779;19;20021;-68
2023/01/08 04:21:41;;;;;;;2.38;1.65;;;11.00;85.10;;;;;;9179788;19;20011;-68
2023/01/08 04:24:42;;;;;;;3.33;1.73;;;11.00;85.00;;;;;;9180339;19;20109;-68
2023/01/08 04:27:44;;;;;;;3.67;2.22;;;11.00;85.10;;;;;;9180281;19;20010;-68
2023/01/08 04:30:45;;;;;;;3.42;1.40;;;11.00;85.10;;;;;;9175974;19;20025;-68
2023/01/08 04:33:47;;;;;;;3.00;1.30;;;10.90;85.00;;;;;;9178181;19;20056;-68
2023/01/08 04:36:48;;;;;;;3.35;1.00;;;10.90;84.90;;;;;;9179995;19;20023;-68
2023/01/08 04:39:49;;;;;;;1.27;0.75;;;10.80;84.90;;;;;;9177514;19;20015;-68
2023/01/08 04:42:51;;;;;;;5.18;1.13;;;10.80;84.90;;;;;;9179323;19;20035;-67
2023/01/08 04:45:57;;;;;;;6.15;0.88;;;10.80;84.80;;;;;;9179344;19;20586;-68
2023/01/08 04:48:59;;;;;;;2.58;1.10;;;10.70;84.80;;;;;;9177608;19;20360;-68
2023/01/08 04:52:00;;;;;;;4.05;0.93;;;10.70;84.80;;;;;;9179478;19;20670;-68
2023/01/08 04:55:02;;;;;;;3.95;0.93;;;10.70;84.80;;;;;;9177757;19;20014;-68
2023/01/08 04:58:04;;;;;;;3.85;1.00;;;10.60;84.80;;;;;;9178964;19;20011;-68
2023/01/08 05:01:18;;;;;;;8.38;1.55;;;10.50;84.80;;;;;;9179068;19;20048;-68
2023/01/08 05:04:19;;;;;;;5.00;1.00;;;10.50;84.90;;;;;;9179336;19;20018;-67
2023/01/08 05:07:21;;;;;;;4.78;0.90;;;10.50;84.40;;;;;;9172328;19;20010;-68
2023/01/08 05:10:22;;;;;;;6.10;0.80;;;10.40;84.90;;;;;;9175866;19;20014;-68
2023/01/08 05:13:23;;;;;;;5.60;0.98;;;10.40;85.00;;;;;;9178271;19;20011;-67
2023/01/08 05:16:25;;;;;;;1.60;0.70;;;10.40;85.00;;;;;;9178144;19;20487;-67
2023/01/08 05:19:26;;;;;;;3.45;0.52;;;10.40;84.90;;;;;;9175142;19;20567;-67
2023/01/08 05:22:28;;;;;;;4.70;1.88;;;10.30;84.80;;;;;;9177965;19;20034;-68
2023/01/08 05:25:29;;;;;;;4.28;0.98;;;10.30;84.80;;;;;;9178599;19;20024;-68
2023/01/08 05:28:31;;;;;;;1.45;0.80;;;10.30;84.90;;;;;;9177529;19;20012;-68
2023/01/08 05:31:33;;;;;;;4.95;1.00;;;10.20;84.90;;;;;;9178381;19;20014;-69
2023/01/08 05:34:34;;;;;;;6.82;1.52;;;10.20;85.00;;;;;;9178022;19;20103;-69
2023/01/08 05:37:37;;;;;;;5.47;0.85;;;10.10;85.00;;;;;;9177336;19;20022;-68
2023/01/08 05:40:38;;;;;;;3.88;0.63;;;10.20;85.10;;;;;;9175343;19;20015;-68
2023/01/08 05:43:39;;;;;;;5.78;0.93;;;10.10;85.10;;;;;;9175960;19;20433;-69
2023/01/08 05:46:41;;;;;;;2.75;0.75;;;10.10;85.10;;;;;;9178040;19;20011;-69
2023/01/08 05:49:42;;;;;;;5.70;0.88;;;10.10;85.20;;;;;;9174920;19;20389;-68
2023/01/08 05:52:44;;;;;;;2.50;1.10;;;10.10;85.20;;;;;;9176293;19;20018;-68
2023/01/08 05:55:45;;;;;;;6.97;1.15;;;10.00;85.10;;;;;;9176970;19;20017;-68
2023/01/08 05:58:46;;;;;;;4.47;0.80;;;10.00;85.20;;;;;;9177402;19;20074;-68
2023/01/08 06:01:48;;;;;;;6.97;0.88;;;10.00;85.20;;;;;;9174920;19;20043;-68
2023/01/08 06:04:49;;;;;;;5.57;1.00;;;9.90;85.20;;;;;;9176100;19;20028;-68
2023/01/08 06:07:51;;;;;;;3.85;0.90;;;9.90;85.20;;;;;;9171324;19;20018;-68
2023/01/08 06:10:52;;;;;;;6.72;1.30;;;9.90;85.20;;;;;;9173068;19;20472;-68
2023/01/08 06:13:53;;;;;;;3.85;1.10;;;9.90;85.90;;;;;;9174833;19;20011;-68
2023/01/08 06:16:55;;;;;;;3.92;1.05;;;9.90;85.30;;;;;;9176840;19;20018;-68
2023/01/08 06:19:56;;;;;;;4.82;0.70;;;9.90;85.30;;;;;;9174197;19;20018;-68
2023/01/08 06:22:57;;;;;;;2.45;1.02;;;9.90;85.40;;;;;;9176724;19;20337;-68
2023/01/08 06:26:00;;;;;;;5.25;0.93;;;9.90;85.40;;;;;;9175572;19;20034;-68
2023/01/08 06:29:01;;;;;;;2.67;0.93;;;9.80;85.40;;;;;;9174767;19;20019;-68
2023/01/08 06:32:03;;;;;;;6.00;1.00;;;9.90;85.50;;;;;;9173738;19;20015;-68
2023/01/08 06:35:04;;;;;;;6.13;1.55;;;9.80;85.40;;;;;;9174727;19;20029;-68
2023/01/08 06:38:06;;;;;;;3.92;0.95;;;9.80;85.40;;;;;;9173362;19;20052;-68
2023/01/08 06:41:09;;;;;;;8.73;1.27;;;9.80;85.40;;;;;;9175617;19;20014;-68
2023/01/08 06:44:11;;;;;;;8.88;2.10;;;9.80;85.50;;;;;;9175001;19;20364;-68
2023/01/08 06:47:12;;;;;;;4.60;1.20;;;9.80;85.50;;;;;;9175677;19;20018;-68
2023/01/08 06:50:13;;;;;;;3.42;0.85;;;9.80;85.50;;;;;;9172548;19;20019;-68
2023/01/08 06:53:15;;;;;;;5.72;1.33;;;9.80;85.60;;;;;;9178946;19;20026;-69
2023/01/08 06:56:16;;;;;;;6.47;1.20;;;9.70;85.50;;;;;;9183212;19;20010;-67
2023/01/08 06:59:17;;;;;;;4.55;0.98;;;9.70;85.50;;;;;;9183141;19;20007;-69
2023/01/08 07:02:19;;;;;;;6.28;1.05;;;9.70;86.20;;;;;;9183129;19;20345;-69
2023/01/08 07:05:22;;;;;;;5.18;1.50;;;9.70;85.60;;;;;;9180435;19;20499;-67
2023/01/08 07:08:23;;;;;;;4.10;0.90;;;9.70;85.60;;;;;;9175881;19;20011;-67
2023/01/08 07:11:25;;;;;;;3.78;1.10;;;9.70;85.70;;;;;;9179754;19;20022;-67
2023/01/08 07:14:26;;;;;;;4.72;0.98;;;9.70;85.70;;;;;;9181797;19;20014;-67
2023/01/08 07:17:28;;;;;;;4.38;1.35;;;9.70;85.70;;;;;;9181282;19;20363;-69
2023/01/08 07:20:29;;;;;;;5.22;1.05;;;9.70;85.70;;;;;;9181693;19;20042;-67
2023/01/08 07:23:31;;;;;;;4.20;1.13;;;9.70;85.80;;;;;;9182294;19;20040;-67
2023/01/08 07:26:33;;;;;;;2.78;1.10;;;9.70;85.70;;;;;;9181769;19;20045;-67
2023/01/08 07:29:34;;;;;;;3.83;1.10;;;9.70;85.80;;;;;;9181025;19;20034;-67
2023/01/08 07:32:35;;;;;;;7.20;0.98;;;9.70;85.80;;;;;;9181165;19;20018;-69
2023/01/08 07:35:37;;;;;;;3.30;0.80;;;9.60;85.70;;;;;;9181578;19;20018;-68
2023/01/08 07:38:39;;;;;;;2.85;1.20;;;9.70;85.70;;;;;;9181961;19;20017;-67
2023/01/08 07:41:40;;;;;;;5.97;1.58;;;9.70;85.70;;;;;;9182327;19;20014;-69
2023/01/08 07:44:42;;;;;;;4.22;0.80;;;9.60;85.60;;;;;;9181615;19;20038;-67
2023/01/08 07:47:43;;;;;;;2.53;0.90;;;9.60;85.60;;;;;;9180205;19;20479;-68
2023/01/08 07:50:45;;;;;;;3.67;1.05;;;9.60;85.60;;;;;;9174458;19;20019;-68
2023/01/08 07:53:46;;;;;;;4.40;1.38;;;9.60;85.70;;;;;;9180747;19;20023;-68
2023/01/08 07:56:47;;;;;;;2.17;0.93;;;9.60;85.60;;;;;;9181497;19;20053;-68
2023/01/08 07:59:49;;;;;;;1.92;0.80;;;9.60;85.60;;;;;;9177630;19;20085;-67
2023/01/08 08:02:50;;;;;;;4.93;1.48;;;9.60;85.60;;;;;;9180930;19;20018;-68
2023/01/08 08:05:52;;;;;;;6.30;2.10;;;9.60;85.60;;;;;;9179067;19;20018;-67
2023/01/08 08:08:55;;;;;;;5.30;1.60;;;9.50;85.50;;;;;;9171169;19;20022;-68
2023/01/08 08:11:57;;;;;;;4.47;1.00;;;9.50;85.50;;;;;;9177472;19;20056;-68
2023/01/08 08:14:58;;;;;;;3.95;1.30;;;9.50;85.50;;;;;;9179399;19;20018;-68
2023/01/08 08:18:00;;;;;;;5.38;1.20;;;9.50;85.50;;;;;;9180280;19;20518;-68
2023/01/08 08:21:02;;;;;;;5.47;1.30;;;9.50;85.60;;;;;;9179707;19;20035;-68
2023/01/08 08:24:04;;;;;;;4.65;1.52;;;9.40;85.50;;;;;;9179482;19;20019;-67
2023/01/08 08:27:05;;;;;;;2.90;1.00;;;9.40;85.50;;;;;;9178619;19;20750;-67
2023/01/08 08:30:08;;;;;;;4.75;1.20;;;9.40;85.50;;;;;;9178454;19;20010;-68
2023/01/08 08:33:09;;;;;;;4.40;1.23;;;9.30;85.50;;;;;;9180009;19;20021;-68
2023/01/08 08:36:11;;;;;;;7.10;1.67;;;9.30;85.50;;;;;;9177646;19;20018;-68
2023/01/08 08:39:12;;;;;;;10.38;1.90;;;9.30;85.50;;;;;;9179850;19;20547;-68
2023/01/08 08:42:14;;;;;;;7.82;2.38;;;9.30;85.50;;;;;;9179089;19;20010;-68
2023/01/08 08:45:15;;;;;;;8.07;2.15;;;9.20;85.50;;;;;;9177301;19;20007;-68
2023/01/08 08:48:17;;;;;;;4.55;1.58;;;9.20;85.50;;;;;;9177528;19;20018;-67
2023/01/08 08:51:18;;;;;;;4.88;1.20;;;9.20;85.50;;;;;;9175997;19;20044;-68
2023/01/08 08:54:19;;;;;;;3.58;1.05;;;9.20;85.50;;;;;;9177417;19;20910;-68
2023/01/08 08:57:23;;;;;;;3.88;1.05;;;9.20;85.50;;;;;;9178761;19;20086;-67
2023/01/08 09:00:24;;;;;;;5.28;1.50;;;9.20;85.50;;;;;;9178382;19;20014;-68
2023/01/08 09:03:26;;;;;;;7.40;2.13;;;9.10;85.40;;;;;;9177750;19;20022;-68
2023/01/08 09:06:27;;;;;;;4.95;1.20;;;9.10;85.50;;;;;;9173395;19;20443;-67
2023/01/08 09:09:29;;;;;;;4.00;0.90;;;9.10;85.40;;;;;;9176645;19;20035;-67
2023/01/08 09:12:30;;;;;;;10.45;2.35;;;9.10;85.40;;;;;;9178929;19;20014;-69
2023/01/08 09:15:31;;;;;;;3.42;1.30;;;9.10;85.40;;;;;;9171737;19;20022;-67
2023/01/08 09:18:33;;;;;;;6.13;1.30;;;9.00;85.30;;;;;;9171904;19;20025;-66
2023/01/08 09:21:35;;;;;;;4.80;1.00;;;9.00;85.30;;;;;;9168446;19;20049;-67
2023/01/08 09:24:36;;;;;;;6.40;1.20;;;9.00;85.30;;;;;;9171978;19;20396;-66
2023/01/08 09:27:38;;;;;;;5.25;1.05;;;9.00;85.30;;;;;;9171923;19;20022;-69
2023/01/08 09:30:39;;;;;;;4.47;1.92;;;9.00;85.30;;;;;;9167735;19;20010;-69
2023/01/08 09:33:40;;;;;;;13.07;1.70;;;9.00;85.30;;;;;;9171540;19;20007;-69
2023/01/08 09:36:42;;;;;;;3.65;1.10;;;9.00;85.40;;;;;;9170607;19;20491;-69
2023/01/08 09:39:43;;;;;;;13.02;1.52;;;9.00;85.30;;;;;;9170222;19;20010;-67
2023/01/08 09:42:59;;;;;;;6.65;1.20;;;9.00;85.30;;;;;;9170252;19;20050;-67
2023/01/08 09:46:04;;;;;;;8.02;1.27;;;9.00;85.30;;;;;;9170550;19;20010;-67
2023/01/08 09:49:10;;;;;;;6.07;1.40;;;9.00;85.30;;;;;;9170574;19;20474;-66
2023/01/08 09:52:13;;;;;;;15.95;1.45;;;9.00;85.20;;;;;;9170460;19;20018;-69
2023/01/08 09:55:15;;;;;;;7.60;2.07;;;9.00;85.30;;;;;;9171278;19;20365;-69
2023/01/08 09:58:49;;;;;;;8.05;1.88;;;9.00;85.30;;;;;;9171056;19;20014;-67
2023/01/08 10:01:51;;;;;;;7.95;1.60;;;9.00;85.20;;;;;;9165140;19;20015;-67
2023/01/08 10:04:58;;;;;;;11.70;1.52;;;9.10;85.30;;;;;;9167763;19;20038;-67
2023/01/08 10:08:00;;;;;;;9.55;1.77;;;9.10;85.30;;;;;;9157823;19;20026;-68
2023/01/08 10:11:03;;;;;;;9.35;2.72;;;9.10;85.20;;;;;;9157884;19;20476;-68
2023/01/08 10:14:15;;;;;;;7.60;1.47;;;9.10;85.20;;;;;;9166625;19;20014;-68
2023/01/08 10:17:37;;;;;;;10.65;1.52;;;9.10;85.30;;;;;;9161103;19;20120;-68
2023/01/08 10:20:38;;;;;;;13.85;1.55;;;9.20;85.30;;;;;;9163235;19;20022;-68
2023/01/08 10:23:51;;;;;;;10.32;1.50;;;9.30;85.30;;;;;;9165518;19;20019;-68
2023/01/08 10:26:52;;;;;;;11.68;1.50;;;9.30;85.20;;;;;;9162667;19;20026;-68
2023/01/08 10:30:05;;;;;;;7.65;1.10;;;9.40;85.30;;;;;;9169254;19;20029;-68
2023/01/08 10:33:12;;;;;;;7.50;1.48;;;9.40;85.30;;;;;;9165763;19;20026;-68
2023/01/08 10:36:22;;;;;;;12.85;1.98;;;9.50;85.20;;;;;;9165017;19;20011;-68
2023/01/08 10:39:29;;;;;;;7.60;1.45;;;9.50;85.10;;;;;;9168291;19;20014;-68
2023/01/08 10:42:33;;;;;;;11.00;1.80;;;9.60;85.10;;;;;;9170930;19;20022;-68
2023/01/08 10:45:35;;;;;;;10.57;1.75;;;9.70;85.00;;;;;;9170004;19;20050;-68
2023/01/08 10:48:44;;;;;;;8.18;1.52;;;9.70;84.90;;;;;;9163798;19;20098;-68
2023/01/08 10:51:51;;;;;;;7.18;1.25;;;9.70;84.80;;;;;;9165915;19;20018;-69
2023/01/08 10:54:52;;;;;;;12.25;1.25;;;9.70;84.80;;;;;;9171278;19;20019;-68
2023/01/08 10:58:03;;;;;;;7.80;1.33;;;9.70;84.80;;;;;;9163698;19;20018;-68
2023/01/08 11:01:16;;;;;;;10.85;1.50;;;9.70;84.70;;;;;;9165781;19;20014;-68
2023/01/08 11:04:27;;;;;;;7.60;1.77;;;9.70;84.70;;;;;;9171321;19;20015;-68
2023/01/08 11:07:30;;;;;;;13.10;1.63;;;9.70;84.70;;;;;;9168201;19;20115;-68
2023/01/08 11:10:35;;;;;;;18.73;1.80;;;9.70;84.70;;;;;;9170794;19;20026;-68
2023/01/08 11:13:37;;;;;;;7.03;1.80;;;9.70;84.70;;;;;;9171959;19;20037;-68
2023/01/08 11:16:40;;;;;;;4.85;1.38;;;9.80;84.80;;;;;;9170053;19;20037;-68
2023/01/08 11:19:42;;;;;;;14.90;1.90;;;9.80;84.80;;;;;;9162310;19;20029;-68
2023/01/08 11:22:43;;;;;;;6.82;1.33;;;9.80;84.80;;;;;;9165432;19;20022;-68
2023/01/08 11:25:49;;;;;;;6.20;1.60;;;9.80;84.80;;;;;;9168233;19;20014;-68
2023/01/08 11:29:11;;;;;;;7.18;1.40;;;9.80;84.80;;;;;;9170803;19;20044;-68
2023/01/08 11:32:44;;;;;;;8.68;1.90;;;9.80;84.90;;;;;;9158518;19;20187;-68
2023/01/08 11:35:53;;;;;;;8.85;1.67;;;9.80;84.80;;;;;;9167650;19;20086;-68
2023/01/08 11:38:54;;;;;;;6.93;1.48;;;9.80;84.80;;;;;;9164161;19;20019;-68
2023/01/08 11:42:18;;;;;;;4.20;1.10;;;9.90;84.80;;;;;;9165158;19;20018;-68
2023/01/08 11:45:35;;;;;;;14.13;1.70;;;9.90;84.70;;;;;;9163646;19;20089;-68
2023/01/08 11:48:56;;;;;;;8.52;1.40;;;9.90;84.80;;;;;;9169364;19;20019;-68
2023/01/08 11:52:21;;;;;;;18.00;3.20;;;9.90;84.80;;;;;;9164671;19;20132;-68
2023/01/08 11:55:35;;;;;;;7.85;1.35;;;9.90;84.80;;;;;;9168503;19;20815;-68
2023/01/08 11:58:45;;;;;;;8.73;1.50;;;9.90;84.80;;;;;;9165192;19;20471;-69
2023/01/08 12:02:14;;;;;;;10.00;1.80;;;9.90;84.80;;;;;;9167869;19;20019;-69
2023/01/08 12:05:40;;;;;;;11.93;1.48;;;9.90;84.80;;;;;;9163674;19;20021;-67
2023/01/08 12:08:50;;;;;;;6.60;1.60;;;10.00;84.80;;;;;;9161002;19;20042;-67
2023/01/08 12:12:06;;;;;;;7.70;1.17;;;10.00;84.80;;;;;;9159246;19;20078;-68
2023/01/08 12:15:22;;;;;;;11.52;1.58;;;10.00;84.80;;;;;;9164327;19;20763;-68
2023/01/08 12:18:40;;;;;;;13.15;1.52;;;10.10;84.90;;;;;;9163949;19;20063;-68
2023/01/08 12:22:15;;;;;;;11.70;1.77;;;10.10;84.90;;;;;;9163538;19;20021;-67
2023/01/08 12:25:22;;;;;;;6.25;1.50;;;10.10;84.80;;;;;;9162467;19;20622;-69
2023/01/08 12:28:48;;;;;;;7.78;1.33;;;10.10;84.80;;;;;;9163517;19;20357;-69
2023/01/08 12:32:08;;;;;;;6.10;2.42;;;10.20;84.80;;;;;;9166867;19;20023;-67
2023/01/08 12:35:14;;;;;;;7.45;1.50;;;10.30;84.90;;;;;;9171844;19;20015;-68
2023/01/08 12:38:29;;;;;;;4.93;1.52;;;10.30;84.90;;;;;;9169649;19;20382;-69
2023/01/08 12:41:33;;;;;;;5.68;1.45;;;10.30;84.80;;;;;;9167137;19;20010;-69
2023/01/08 12:44:35;;;;;;;5.28;1.70;;;10.40;84.80;;;;;;9169828;19;20017;-69
2023/01/08 12:47:39;;;;;;;8.30;1.42;;;10.40;84.70;;;;;;9170278;19;20014;-67
2023/01/08 12:50:55;;;;;;;8.10;1.45;;;10.40;84.70;;;;;;9166459;19;20299;-67
2023/01/08 12:54:08;;;;;;;5.63;1.42;;;10.50;84.70;;;;;;9170304;19;20074;-69
2023/01/08 12:57:20;;;;;;;5.93;1.23;;;10.50;84.60;;;;;;9170352;19;20022;-69
2023/01/08 13:00:29;;;;;;;9.57;1.25;;;10.50;84.60;;;;;;9168224;19;20037;-68
2023/01/08 13:03:32;;;;;;;5.78;1.00;;;10.50;84.60;;;;;;9161096;19;20377;-68
2023/01/08 13:06:34;;;;;;;3.60;1.10;;;10.50;84.50;;;;;;9160709;19;20014;-68
2023/01/08 13:09:35;;;;;;;4.45;1.10;;;10.50;84.50;;;;;;9156532;19;20014;-69
2023/01/08 13:12:39;;;;;;;4.05;0.93;;;10.50;84.50;;;;;;9169152;19;20022;-69
2023/01/08 13:15:41;;;;;;;2.50;0.98;;;10.60;84.50;;;;;;9168051;19;20011;-69
2023/01/08 13:18:59;;;;;;;4.65;1.05;;;10.60;84.50;;;;;;9171893;19;20018;-67
2023/01/08 13:22:01;;;;;;;5.10;0.93;;;10.60;84.40;;;;;;9169591;19;20010;-67
2023/01/08 13:25:21;;;;;;;1.88;1.00;;;10.70;84.40;;;;;;9170100;19;20022;-69
2023/01/08 13:28:28;;;;;;;3.50;0.70;;;10.60;84.30;;;;;;9168676;19;20046;-68
2023/01/08 13:31:39;;;;;;;7.28;1.88;;;10.70;84.30;;;;;;9164994;19;20101;-68
2023/01/08 13:34:41;;;;;;;5.28;0.80;;;10.70;84.30;;;;;;9170398;19;20018;-68
2023/01/08 13:37:45;;;;;;;2.53;0.95;;;10.70;84.30;;;;;;9167834;19;20022;-68
2023/01/08 13:40:46;;;;;;;7.60;1.00;;;10.70;84.30;;;;;;9169590;19;20018;-68
2023/01/08 13:44:16;;;;;;;3.17;0.90;;;10.70;84.20;;;;;;9171303;19;20092;-69
2023/01/08 13:47:28;;;;;;;3.28;0.60;;;10.70;84.20;;;;;;9166502;19;20045;-69
2023/01/08 13:50:31;;;;;;;5.22;1.20;;;10.70;84.20;;;;;;9167184;19;20022;-69
2023/01/08 13:53:33;;;;;;;2.85;1.00;;;10.70;84.20;;;;;;9165580;19;20018;-69
2023/01/08 13:56:34;;;;;;;6.63;1.23;;;10.70;84.20;;;;;;9165207;19;20054;-69
2023/01/08 13:59:48;;;;;;;3.45;1.23;;;10.70;84.20;;;;;;9163982;19;20479;-69
2023/01/08 14:02:50;;;;;;;2.17;0.80;;;10.70;84.20;;;;;;9161195;19;20451;-69
2023/01/08 14:06:04;;;;;;;2.60;0.95;;;10.60;84.20;;;;;;9163872;19;20018;-69
2023/01/08 14:09:05;;;;;;;2.07;0.77;;;10.60;84.20;;;;;;9161473;19;20025;-69
2023/01/08 14:12:13;;;;;;;3.70;0.80;;;10.60;84.20;;;;;;9169368;19;20029;-69
2023/01/08 14:15:27;;;;;;;3.45;0.85;;;10.60;84.20;;;;;;9168264;19;20043;-69
2023/01/08 14:18:29;;;;;;;4.20;0.93;;;10.60;84.10;;;;;;9167254;19;20014;-69
2023/01/08 14:21:31;;;;;;;6.88;1.30;;;10.60;84.10;;;;;;9167913;19;20029;-69
2023/01/08 14:24:32;;;;;;;3.33;0.98;;;10.60;84.20;;;;;;9168700;19;20023;-69
2023/01/08 14:27:34;;;;;;;4.82;1.20;;;10.60;84.20;;;;;;9168988;19;20019;-69
2023/01/08 14:30:36;;;;;;;4.65;0.90;;;10.60;84.10;;;;;;9166397;19;20026;-69
2023/01/08 14:33:40;;;;;;;4.10;0.85;;;10.60;84.10;;;;;;9169170;19;20038;-69
2023/01/08 14:36:42;;;;;;;3.83;1.10;;;10.60;84.10;;;;;;9166093;19;20038;-69
2023/01/08 14:39:47;;;;;;;2.30;1.00;;;10.60;84.10;;;;;;9166683;19;20022;-69
2023/01/08 14:42:52;;;;;;;6.45;1.00;;;10.60;84.00;;;;;;9164377;19;20475;-69
2023/01/08 14:45:54;;;;;;;5.82;1.20;;;10.50;83.90;;;;;;9167487;19;20089;-70
2023/01/08 14:48:56;;;;;;;4.07;1.25;;;10.60;84.00;;;;;;9166779;19;20803;-68
2023/01/08 14:52:00;;;;;;;8.30;1.48;;;10.60;83.90;;;;;;9163412;19;20044;-70
2023/01/08 14:55:02;;;;;;;5.10;1.95;;;10.50;83.80;;;;;;9167829;19;20025;-69
2023/01/08 14:58:13;;;;;;;7.50;2.00;;;10.50;83.90;;;;;;9167737;19;20052;-70
2023/01/08 15:01:18;;;;;;;3.95;1.65;;;10.50;83.70;;;;;;9164332;19;20018;-70
2023/01/08 15:04:22;;;;;;;6.03;1.52;;;10.50;83.70;;;;;;9165044;19;20019;-68
2023/01/08 15:07:28;;;;;;;5.60;1.75;;;10.50;83.70;;;;;;9163036;19;20389;-68
2023/01/08 15:10:41;;;;;;;10.63;1.80;;;10.40;83.50;;;;;;9165683;19;20126;-68
2023/01/08 15:13:42;;;;;;;9.30;2.90;;;10.40;83.40;;;;;;9171237;19;20501;-68
2023/01/08 15:16:44;;;;;;;11.32;2.30;;;10.40;83.40;;;;;;9174766;19;20077;-68
2023/01/08 15:19:52;;;;;;;5.85;1.60;;;10.40;83.40;;;;;;9175720;19;20025;-68
2023/01/08 15:22:53;;;;;;;4.32;1.10;;;10.40;83.40;;;;;;9174977;19;20029;-68
2023/01/08 15:25:55;;;;;;;5.10;1.40;;;10.30;84.00;;;;;;9173582;19;20014;-68
2023/01/08 15:29:04;;;;;;;2.58;1.10;;;10.30;83.30;;;;;;9175017;19;20022;-68
2023/01/08 15:32:14;;;;;;;8.57;1.30;;;10.30;83.40;;;;;;9171950;19;20051;-69
2023/01/08 15:35:17;;;;;;;7.00;1.60;;;10.30;83.40;;;;;;9170836;19;20025;-69
2023/01/08 15:38:22;;;;;;;8.35;1.20;;;10.20;83.30;;;;;;9172857;19;20042;-68
2023/01/08 15:44:45;;;;;;;2.88;1.23;;;10.20;83.30;;;;;;9172794;19;20015;-69
2023/01/08 15:47:46;;;;;;;7.50;2.90;;;10.10;83.20;;;;;;9171817;19;20014;-70
2023/01/08 15:50:48;;;;;;;2.38;1.42;;;10.10;83.30;;;;;;9172586;19;20025;-69
2023/01/08 15:53:49;;;;;;;4.53;1.65;;;10.00;83.20;;;;;;9174680;19;20030;-69
2023/01/08 15:56:51;;;;;;;6.35;1.90;;;10.00;83.30;;;;;;9173094;19;20022;-69
2023/01/08 15:59:52;;;;;;;6.28;1.30;;;10.00;83.20;;;;;;9175000;19;20014;-69
2023/01/08 16:02:54;;;;;;;4.63;1.63;;;10.00;83.30;;;;;;9177286;19;20042;-69
2023/01/08 16:05:56;;;;;;;6.82;1.35;;;9.90;83.20;;;;;;9176421;19;20014;-68
2023/01/08 16:08:59;;;;;;;6.03;1.20;;;9.90;83.30;;;;;;9167133;19;20019;-69
2023/01/08 16:12:01;;;;;;;7.13;1.60;;;9.90;83.20;;;;;;9167379;19;20029;-70